Main page
METAR-TAF:

METAR-TAF

Airports :

Oran Es Sénia Airport

Oran, Algeria

latitude: 35-38N, longitude: 000-36W, elevation: 90 m

Current weather observation

The report was made 35 minutes ago, at 22:00 UTC
Wind 4 kt from the West
Temperature 12°C
Humidity 94%
Pressure 1024 hPa
Visibility: 9000 m
Few clouds at a height of 1300 ft

METAR: DAOO 102200Z 26004KT 9000 FEW013 12/11 Q1024

Time: 23:35 (22:35 UTC)

Forecast

The report was made 5 hours and 35 minutes ago, at 17:00 UTC
Forecast valid from 10 at 18 UTC to 11 at 18 UTC
Wind 10 kt from the West
Visibility 10 km or more
Few clouds at a height of 1600 ft
Becoming
from 10 at 18 UTC to 10 at 21 UTC
Wind 2 kt from variable directions
Becoming
from 11 at 06 UTC to 11 at 08 UTC
Wind 10 kt from the Southwest
Visibility 10 km or more
no clouds below 1500 m and no cumulonimbus
Becoming
from 10 at 12 UTC to 10 at 14 UTC
Wind 20 kt from the West

TAF: DAOO 101700Z 1018/1118 26010KT 9999 FEW016 BECMG 1018/1021 VRB02KT BECMG 1106/1108 22010KT CAVOK BECMG 1012/1014 26020KT

Weather observations and forecasts of more than 4000 airports (METAR and TAF reports).

The available stations are represented by yellow and red dots on the map.

Hover mouse over dot to see the name of the station.

Then click to see weather observations and forecasts.

To change the map : click on the green buttons with a black cross to zoom in, on the green button with a dash to zoom out, or on the green arrows for adjacent maps.


METAR-TAF: